Terminal Aerodrome Forecast
Issued by NWS Binghamton, NY

Home | Current Version | Previous Version | Text Only | Print | Product List | Glossary On
Versions: 1 2 3 4 5 6 7 8 9 10 11 12 13 14 15 16 17 18 19 20 21 22 23 24
000
FTUS41 KBGM 050900 AAB
TAFSYR
TAF AMD
KSYR 050900Z 0509/0606 31010G18KT P6SM -SN SCT025 OVC035
     FM051300 31008G14KT P6SM -SN BKN025 OVC035
     FM052000 30007KT P6SM SCT035 SCT200=

USA.gov is the U.S. government's official web portal to all federal, state and local government web resources and services.